createdAt,value
2023-01-10T00:00:50.096Z,6.26
2023-01-10T00:03:18.920Z,5.83
2023-01-10T00:05:45.733Z,5.93
2023-01-10T00:08:15.970Z,6.11
2023-01-10T00:10:44.540Z,6.33
2023-01-10T00:13:15.239Z,5.72
2023-01-10T00:15:43.208Z,6.25
2023-01-10T00:18:10.238Z,6.08
2023-01-10T00:20:39.879Z,6.43
2023-01-10T00:23:07.181Z,5.91
2023-01-10T00:25:34.065Z,5.94
2023-01-10T00:28:03.667Z,5.92
2023-01-10T00:30:35.940Z,6.41
2023-01-10T00:33:02.698Z,5.76
2023-01-10T00:35:29.413Z,5.89
2023-01-10T00:37:56.394Z,5.54
2023-01-10T00:40:23.357Z,6.54
2023-01-10T00:42:50.133Z,5.97
2023-01-10T00:45:18.879Z,5.97
2023-01-10T00:47:45.721Z,6.73
2023-01-10T00:50:12.496Z,6.21
2023-01-10T00:52:41.027Z,5.69
2023-01-10T00:55:09.220Z,6.59
2023-01-10T00:57:36.325Z,6.45
2023-01-10T01:00:03.775Z,5.41
2023-01-10T01:02:31.951Z,6.61
2023-01-10T01:04:58.671Z,5.70
2023-01-10T01:07:25.616Z,6.59
2023-01-10T01:09:52.621Z,5.94
2023-01-10T01:12:19.363Z,6.72
2023-01-10T01:14:47.312Z,6.18
2023-01-10T01:17:16.440Z,6.61
2023-01-10T01:19:44.834Z,6.11
2023-01-10T01:22:11.878Z,6.60
2023-01-10T01:24:38.809Z,6.55
2023-01-10T01:27:05.693Z,6.75
2023-01-10T01:29:42.285Z,6.72
2023-01-10T01:32:09.596Z,6.68
2023-01-10T01:34:36.479Z,5.60
2023-01-10T01:37:04.871Z,6.04
2023-01-10T01:39:31.679Z,6.09
2023-01-10T01:41:58.478Z,5.69
2023-01-10T01:44:30.820Z,6.55
2023-01-10T01:47:06.788Z,6.68
2023-01-10T01:49:38.245Z,6.38
2023-01-10T01:52:12.076Z,6.18
2023-01-10T01:54:38.978Z,6.22
2023-01-10T01:57:11.011Z,5.52
2023-01-10T01:59:43.416Z,6.71
2023-01-10T02:02:16.969Z,5.80
2023-01-10T02:04:49.738Z,6.76
2023-01-10T02:07:18.532Z,5.89
2023-01-10T02:09:50.345Z,6.45
2023-01-10T02:12:17.751Z,6.15
2023-01-10T02:14:45.405Z,5.93
2023-01-10T02:17:13.776Z,6.81
2023-01-10T02:19:51.506Z,6.11
2023-01-10T02:22:46.582Z,6.13
2023-01-10T02:25:48.518Z,6.62
2023-01-10T02:28:41.418Z,6.86
2023-01-10T02:31:25.466Z,6.88
2023-01-10T02:34:05.721Z,6.18
2023-01-10T02:36:43.707Z,6.44
2023-01-10T02:39:18.621Z,6.23
2023-01-10T02:41:53.634Z,6.24
2023-01-10T02:44:29.394Z,6.93
2023-01-10T02:46:56.695Z,7.03
2023-01-10T02:49:24.796Z,6.11
2023-01-10T02:51:51.993Z,6.32
2023-01-10T02:54:22.137Z,7.16
2023-01-10T02:57:10.946Z,6.37
2023-01-10T02:59:50.565Z,6.42
2023-01-10T03:02:26.991Z,6.19
2023-01-10T03:05:04.922Z,7.10
2023-01-10T03:07:38.839Z,5.99
2023-01-10T03:10:13.544Z,7.17
2023-01-10T03:12:46.935Z,7.18
2023-01-10T03:15:20.340Z,6.44
2023-01-10T03:17:51.727Z,7.20
2023-01-10T03:20:21.136Z,7.14
2023-01-10T03:22:50.080Z,6.82
2023-01-10T03:25:20.145Z,5.99
2023-01-10T03:27:52.672Z,6.62
2023-01-10T03:30:26.515Z,5.98
2023-01-10T03:32:55.261Z,6.12
2023-01-10T03:35:32.838Z,6.80
2023-01-10T03:38:06.779Z,5.99
2023-01-10T03:40:44.465Z,6.14
2023-01-10T03:43:19.250Z,6.88
2023-01-10T03:45:56.142Z,6.87
2023-01-10T03:48:27.768Z,5.83
2023-01-10T03:50:57.579Z,6.70
2023-01-10T03:53:25.766Z,6.92
2023-01-10T03:55:52.814Z,5.98
2023-01-10T03:58:20.125Z,6.61
2023-01-10T04:00:48.004Z,7.03
2023-01-10T04:03:15.482Z,6.94
2023-01-10T04:05:42.411Z,6.98
2023-01-10T04:08:10.841Z,5.79
2023-01-10T04:10:38.311Z,6.39
2023-01-10T04:13:05.401Z,6.16
2023-01-10T04:15:32.870Z,6.98
2023-01-10T04:17:59.914Z,6.93
2023-01-10T04:20:26.822Z,6.23
2023-01-10T04:22:53.901Z,6.02
2023-01-10T04:25:23.205Z,6.17
2023-01-10T04:27:50.403Z,6.93
2023-01-10T04:30:17.753Z,6.38
2023-01-10T04:32:45.026Z,6.37
2023-01-10T04:35:12.897Z,5.64
2023-01-10T04:37:39.626Z,5.73
2023-01-10T04:40:08.758Z,6.35
2023-01-10T04:42:37.203Z,6.20
2023-01-10T04:45:04.797Z,6.86
2023-01-10T04:47:31.576Z,6.91
2023-01-10T04:49:58.400Z,5.62
2023-01-10T04:52:25.584Z,6.82
2023-01-10T04:54:52.318Z,6.61
2023-01-10T04:57:19.246Z,6.88
2023-01-10T04:59:47.591Z,6.74
2023-01-10T05:02:14.492Z,6.96
2023-01-10T05:04:41.700Z,6.69
2023-01-10T05:07:08.654Z,6.37
2023-01-10T05:09:35.517Z,5.91
2023-01-10T05:12:06.535Z,6.42
2023-01-10T05:14:33.355Z,6.37
2023-01-10T05:17:06.681Z,6.86
2023-01-10T05:19:33.708Z,6.52
2023-01-10T05:22:02.585Z,6.92
2023-01-10T05:24:30.664Z,6.11
2023-01-10T05:26:57.632Z,5.85
2023-01-10T05:29:24.427Z,6.48
2023-01-10T05:31:51.452Z,6.93
2023-01-10T05:34:19.917Z,6.93
2023-01-10T05:36:46.888Z,6.90
2023-01-10T05:39:13.730Z,6.11
2023-01-10T05:41:40.621Z,5.91
2023-01-10T05:44:07.618Z,6.96
2023-01-10T05:46:34.669Z,6.71
2023-01-10T05:49:04.398Z,5.95
2023-01-10T05:51:32.689Z,5.81
2023-01-10T05:53:59.432Z,7.02
2023-01-10T05:56:29.400Z,7.02
2023-01-10T05:59:05.342Z,7.02
2023-01-10T06:01:34.919Z,5.85
2023-01-10T06:04:01.598Z,6.01
2023-01-10T06:06:28.317Z,6.90
2023-01-10T06:08:56.586Z,6.85
2023-01-10T06:11:24.380Z,6.86
2023-01-10T06:13:51.277Z,6.22
2023-01-10T06:16:18.266Z,6.60
2023-01-10T06:18:44.953Z,6.72
2023-01-10T06:21:11.603Z,6.63
2023-01-10T06:23:38.392Z,6.63
2023-01-10T06:26:06.681Z,5.61
2023-01-10T06:28:33.621Z,6.28
2023-01-10T06:31:00.469Z,6.43
2023-01-10T06:33:27.172Z,6.38
2023-01-10T06:35:53.972Z,5.93
2023-01-10T06:38:20.879Z,6.34
2023-01-10T06:40:47.679Z,5.49
2023-01-10T06:43:15.880Z,6.34
2023-01-10T06:45:42.767Z,6.40
2023-01-10T06:48:09.455Z,6.43
2023-01-10T06:50:36.614Z,6.36
2023-01-10T06:53:04.661Z,6.45
2023-01-10T06:55:31.676Z,6.35
2023-01-10T06:58:00.802Z,5.78
2023-01-10T07:00:30.259Z,6.46
2023-01-10T07:02:59.236Z,6.01
2023-01-10T07:05:26.184Z,6.17
2023-01-10T07:07:59.324Z,5.40
2023-01-10T07:10:26.049Z,5.81
2023-01-10T07:12:54.707Z,6.33
2023-01-10T07:15:21.479Z,6.67
2023-01-10T07:17:49.609Z,6.43
2023-01-10T07:20:16.921Z,6.74
2023-01-10T07:22:43.658Z,6.76
2023-01-10T07:25:10.912Z,5.99
2023-01-10T07:27:37.841Z,6.81
2023-01-10T07:30:05.961Z,6.49
2023-01-10T07:32:34.182Z,6.19
2023-01-10T07:35:02.696Z,6.92
2023-01-10T07:37:29.457Z,6.89
2023-01-10T07:39:56.216Z,5.61
2023-01-10T07:42:23.245Z,5.61
2023-01-10T07:44:50.318Z,6.44
2023-01-10T07:47:17.122Z,6.80
2023-01-10T07:49:44.156Z,6.72
2023-01-10T07:52:12.364Z,5.61
2023-01-10T07:54:39.280Z,6.54
2023-01-10T07:57:06.042Z,5.95
2023-01-10T07:59:32.801Z,6.62
2023-01-10T08:01:59.483Z,6.39
2023-01-10T08:04:26.351Z,6.42
2023-01-10T08:06:55.312Z,6.14
2023-01-10T08:09:23.532Z,6.36
2023-01-10T08:11:50.391Z,6.49
2023-01-10T08:14:17.352Z,6.48
2023-01-10T08:16:44.711Z,6.30
2023-01-10T08:19:13.724Z,6.41
2023-01-10T08:21:40.424Z,6.22
2023-01-10T08:24:07.539Z,6.35
2023-01-10T08:26:35.829Z,6.33
2023-01-10T08:29:02.552Z,6.32
2023-01-10T08:31:29.211Z,6.30
2023-01-10T08:33:56.113Z,5.20
2023-01-10T08:36:22.909Z,5.92
2023-01-10T08:38:49.635Z,6.26
2023-01-10T08:41:16.729Z,6.26
2023-01-10T08:43:44.955Z,5.90
2023-01-10T08:46:11.781Z,6.03
2023-01-10T08:48:39.069Z,5.76
2023-01-10T08:51:09.304Z,5.71
2023-01-10T08:53:36.372Z,5.19
2023-01-10T08:56:05.537Z,5.17
2023-01-10T08:58:32.581Z,6.38
2023-01-10T09:01:04.393Z,6.21
2023-01-10T09:03:31.578Z,5.58
2023-01-10T09:05:59.397Z,5.92
2023-01-10T09:08:26.342Z,6.38
2023-01-10T09:10:53.272Z,5.43
2023-01-10T09:13:20.327Z,5.92
2023-01-10T09:15:47.107Z,5.57
2023-01-10T09:18:15.165Z,6.72
2023-01-10T09:20:43.154Z,6.83
2023-01-10T09:23:12.457Z,5.82
2023-01-10T09:25:39.355Z,6.71
2023-01-10T09:28:07.018Z,6.36
2023-01-10T09:30:34.040Z,6.95
2023-01-10T09:33:01.108Z,7.06
2023-01-10T09:35:30.844Z,6.39
2023-01-10T09:37:59.422Z,7.07
2023-01-10T09:40:37.977Z,7.33
2023-01-10T09:43:14.862Z,6.28
2023-01-10T09:45:51.253Z,7.10
2023-01-10T09:48:24.529Z,6.98
2023-01-10T09:51:10.463Z,7.24
2023-01-10T09:53:42.532Z,7.00
2023-01-10T09:56:11.008Z,7.04
2023-01-10T09:58:39.695Z,7.62
2023-01-10T10:01:09.941Z,6.73
2023-01-10T10:03:43.438Z,6.36
2023-01-10T10:06:13.232Z,6.87
2023-01-10T10:08:40.685Z,7.63
2023-01-10T10:11:22.979Z,7.63
2023-01-10T10:14:02.049Z,6.79
2023-01-10T10:16:42.253Z,7.62
2023-01-10T10:19:17.252Z,7.12
2023-01-10T10:21:59.567Z,7.58
2023-01-10T10:24:38.537Z,7.60
2023-01-10T10:27:16.218Z,6.56
2023-01-10T10:30:11.952Z,7.20
2023-01-10T10:33:07.624Z,7.06
2023-01-10T10:35:38.554Z,7.07
2023-01-10T10:38:14.412Z,7.57
2023-01-10T10:40:44.689Z,7.66
2023-01-10T10:43:16.734Z,7.63
2023-01-10T10:45:47.534Z,7.55
2023-01-10T10:48:18.006Z,6.63
2023-01-10T10:50:52.261Z,6.88
2023-01-10T10:53:21.023Z,7.64
2023-01-10T10:55:48.572Z,7.19
2023-01-10T10:58:15.722Z,7.56
2023-01-10T11:00:43.000Z,7.72
2023-01-10T11:03:25.453Z,7.62
2023-01-10T11:05:53.085Z,7.25
2023-01-10T11:08:22.307Z,6.87
2023-01-10T11:10:52.491Z,7.71
2023-01-10T11:13:27.579Z,7.70
2023-01-10T11:15:56.180Z,7.60
2023-01-10T11:18:24.970Z,6.90
2023-01-10T11:20:57.468Z,7.19
2023-01-10T11:23:35.310Z,7.23
2023-01-10T11:26:02.779Z,6.74
2023-01-10T11:28:31.980Z,7.56
2023-01-10T11:31:00.305Z,7.68
2023-01-10T11:33:30.931Z,7.51
2023-01-10T11:36:00.790Z,6.91
2023-01-10T11:38:29.719Z,6.78
2023-01-10T11:40:58.573Z,7.66
2023-01-10T11:43:29.606Z,7.61
2023-01-10T11:45:59.063Z,7.01
2023-01-10T11:48:53.220Z,7.53
2023-01-10T11:51:24.505Z,7.11
2023-01-10T11:53:58.780Z,7.15
2023-01-10T11:56:28.907Z,7.46
2023-01-10T11:58:58.902Z,7.46
2023-01-10T12:01:28.788Z,7.44
2023-01-10T12:03:56.080Z,7.41
2023-01-10T12:06:22.858Z,7.30
2023-01-10T12:08:49.890Z,7.42
2023-01-10T12:11:27.333Z,7.18
2023-01-10T12:13:55.801Z,6.44
2023-01-10T12:16:24.469Z,7.30
2023-01-10T12:18:53.229Z,7.28
2023-01-10T12:21:25.145Z,6.48
2023-01-10T12:23:54.390Z,7.30
2023-01-10T12:26:23.609Z,6.67
2023-01-10T12:28:53.495Z,7.23
2023-01-10T12:31:22.327Z,6.38
2023-01-10T12:33:54.687Z,7.04
2023-01-10T12:36:33.414Z,7.09
2023-01-10T12:39:13.616Z,7.19
2023-01-10T12:41:52.329Z,6.56
2023-01-10T12:44:23.925Z,7.16
2023-01-10T12:47:13.381Z,7.16
2023-01-10T12:49:47.676Z,6.57
2023-01-10T12:52:23.114Z,6.23
2023-01-10T12:54:51.957Z,7.19
2023-01-10T12:57:26.815Z,7.23
2023-01-10T12:59:55.798Z,7.15
2023-01-10T13:02:27.226Z,6.52
2023-01-10T13:04:59.491Z,7.19
2023-01-10T13:07:28.906Z,7.13
2023-01-10T13:09:56.462Z,6.38
2023-01-10T13:12:32.745Z,6.00
2023-01-10T13:15:06.839Z,7.00
2023-01-10T13:17:42.129Z,6.28
2023-01-10T13:20:25.733Z,6.36
2023-01-10T13:22:54.793Z,6.87
2023-01-10T13:25:25.074Z,7.01
2023-01-10T13:28:03.498Z,6.80
2023-01-10T13:30:33.683Z,6.54
2023-01-10T13:33:05.272Z,6.62
2023-01-10T13:35:41.516Z,7.01
2023-01-10T13:38:18.356Z,6.84
2023-01-10T13:41:01.254Z,6.36
2023-01-10T13:43:39.098Z,5.86
2023-01-10T13:46:37.826Z,6.95
2023-01-10T13:49:46.289Z,6.88
2023-01-10T13:52:40.403Z,6.93
2023-01-10T13:55:29.241Z,6.65
2023-01-10T13:58:02.536Z,6.97
2023-01-10T14:00:48.385Z,6.71
2023-01-10T14:03:38.442Z,6.86
2023-01-10T14:06:11.578Z,6.76
2023-01-10T14:08:39.664Z,6.86
2023-01-10T14:11:09.006Z,6.72
2023-01-10T14:13:36.712Z,6.79
2023-01-10T14:16:05.579Z,6.90
2023-01-10T14:18:35.635Z,6.87
2023-01-10T14:21:04.707Z,6.81
2023-01-10T14:23:36.795Z,6.77
2023-01-10T14:26:04.710Z,6.87
2023-01-10T14:28:35.783Z,6.68
2023-01-10T14:31:05.919Z,6.67
2023-01-10T14:33:34.227Z,6.22
2023-01-10T14:36:07.356Z,6.86
2023-01-10T14:38:37.495Z,5.84
2023-01-10T14:41:07.316Z,6.09
2023-01-10T14:43:41.799Z,6.42
2023-01-10T14:46:14.538Z,6.61
2023-01-10T14:48:45.655Z,6.74
2023-01-10T14:51:19.397Z,6.80
2023-01-10T14:53:46.382Z,6.57
2023-01-10T14:56:21.495Z,6.44
2023-01-10T14:58:48.766Z,6.85
2023-01-10T15:01:22.874Z,6.85
2023-01-10T15:03:49.919Z,6.59
2023-01-10T15:06:16.759Z,6.64
2023-01-10T15:08:43.526Z,5.85
2023-01-10T15:11:12.998Z,6.25
2023-01-10T15:13:48.861Z,6.18
2023-01-10T15:16:32.366Z,6.35
2023-01-10T15:18:59.913Z,6.84
2023-01-10T15:21:27.355Z,6.88
2023-01-10T15:23:54.160Z,6.95
2023-01-10T15:26:28.296Z,6.91
2023-01-10T15:29:12.450Z,6.82
2023-01-10T15:31:41.584Z,6.99
2023-01-10T15:34:11.233Z,6.71
2023-01-10T15:36:45.736Z,6.81
2023-01-10T15:39:20.551Z,6.89
2023-01-10T15:41:47.600Z,6.24
2023-01-10T15:44:35.510Z,6.56
2023-01-10T15:47:04.408Z,6.43
2023-01-10T15:49:31.391Z,6.81
2023-01-10T15:51:58.091Z,6.66
2023-01-10T15:54:33.963Z,6.02
2023-01-10T15:57:06.273Z,6.48
2023-01-10T15:59:36.852Z,6.73
2023-01-10T16:02:20.484Z,6.43
2023-01-10T16:04:48.835Z,6.56
2023-01-10T16:07:19.232Z,6.60
2023-01-10T16:09:55.235Z,6.20
2023-01-10T16:12:27.195Z,6.03
2023-01-10T16:14:53.908Z,6.05
2023-01-10T16:17:22.395Z,6.51
2023-01-10T16:19:53.610Z,6.54
2023-01-10T16:22:20.357Z,6.54
2023-01-10T16:24:47.441Z,6.45
2023-01-10T16:27:14.276Z,6.36
2023-01-10T16:29:41.222Z,5.66
2023-01-10T16:32:13.859Z,6.28
2023-01-10T16:34:43.287Z,6.40
2023-01-10T16:37:10.047Z,6.38
2023-01-10T16:39:36.910Z,5.98
2023-01-10T16:42:03.754Z,6.43
2023-01-10T16:44:31.353Z,6.25
2023-01-10T16:46:58.928Z,5.71
2023-01-10T16:49:26.191Z,6.07
2023-01-10T16:51:54.693Z,6.22
2023-01-10T16:54:22.759Z,6.39
2023-01-10T16:56:49.656Z,5.96
2023-01-10T16:59:16.768Z,6.40
2023-01-10T17:01:47.624Z,6.14
2023-01-10T17:04:19.828Z,6.42
2023-01-10T17:06:46.707Z,6.08
2023-01-10T17:09:21.781Z,6.40
2023-01-10T17:11:53.454Z,6.19
2023-01-10T17:14:21.404Z,5.31
2023-01-10T17:16:48.300Z,6.41
2023-01-10T17:19:15.108Z,6.37
2023-01-10T17:21:41.982Z,6.38
2023-01-10T17:24:10.325Z,6.31
2023-01-10T17:26:38.486Z,6.28
2023-01-10T17:29:05.264Z,5.75
2023-01-10T17:31:32.156Z,6.11
2023-01-10T17:33:58.891Z,5.25
2023-01-10T17:36:25.888Z,6.24
2023-01-10T17:38:52.684Z,6.35
2023-01-10T17:41:19.603Z,5.88
2023-01-10T17:43:47.869Z,6.39
2023-01-10T17:46:14.867Z,6.40
2023-01-10T17:48:41.594Z,6.45
2023-01-10T17:51:08.425Z,5.18
2023-01-10T17:53:35.144Z,5.80
2023-01-10T17:56:01.885Z,6.16
2023-01-10T17:58:28.927Z,6.38
2023-01-10T18:00:57.406Z,5.17
2023-01-10T18:03:25.408Z,5.37
2023-01-10T18:05:53.841Z,6.44
2023-01-10T18:08:20.925Z,5.24
2023-01-10T18:10:48.324Z,6.39
2023-01-10T18:13:16.229Z,6.33
2023-01-10T18:15:45.318Z,6.41
2023-01-10T18:18:14.054Z,6.38
2023-01-10T18:20:41.223Z,6.52
2023-01-10T18:23:11.649Z,6.48
2023-01-10T18:25:38.403Z,5.80
2023-01-10T18:28:05.387Z,6.51
2023-01-10T18:30:32.182Z,5.62
2023-01-10T18:32:58.926Z,5.32
2023-01-10T18:35:27.576Z,6.49
2023-01-10T18:37:54.467Z,6.33
2023-01-10T18:40:21.141Z,6.46
2023-01-10T18:42:47.825Z,5.38
2023-01-10T18:45:14.725Z,5.76
2023-01-10T18:47:41.669Z,6.34
2023-01-10T18:50:09.403Z,6.40
2023-01-10T18:52:37.807Z,6.62
2023-01-10T18:55:05.412Z,6.65
2023-01-10T18:57:32.117Z,6.61
2023-01-10T18:59:58.847Z,6.48
2023-01-10T19:02:25.628Z,5.68
2023-01-10T19:04:52.387Z,6.67
2023-01-10T19:07:19.439Z,6.69
2023-01-10T19:09:50.704Z,6.73
2023-01-10T19:12:22.907Z,6.40
2023-01-10T19:14:49.774Z,6.24
2023-01-10T19:17:28.856Z,6.15
2023-01-10T19:19:55.665Z,5.99
2023-01-10T19:22:22.454Z,5.95
2023-01-10T19:24:50.848Z,6.61
2023-01-10T19:27:17.881Z,6.18
2023-01-10T19:29:47.176Z,6.75
2023-01-10T19:32:14.161Z,6.13
2023-01-10T19:34:46.969Z,6.89
2023-01-10T19:37:13.928Z,6.87
2023-01-10T19:39:41.184Z,6.20
2023-01-10T19:42:09.712Z,6.79
2023-01-10T19:44:36.775Z,6.87
2023-01-10T19:47:03.743Z,6.46
2023-01-10T19:49:34.090Z,6.40
2023-01-10T19:52:01.656Z,5.86
2023-01-10T19:54:31.442Z,6.10
2023-01-10T19:56:59.637Z,6.14
2023-01-10T19:59:28.237Z,6.46
2023-01-10T20:01:58.433Z,6.83
2023-01-10T20:04:25.393Z,7.17
2023-01-10T20:06:52.625Z,7.34
2023-01-10T20:09:19.508Z,7.23
2023-01-10T20:11:47.087Z,7.25
2023-01-10T20:14:17.109Z,7.37
2023-01-10T20:16:45.735Z,6.91
2023-01-10T20:19:14.444Z,6.13
2023-01-10T20:21:42.774Z,7.39
2023-01-10T20:24:15.446Z,7.32
2023-01-10T20:26:42.822Z,7.20
2023-01-10T20:29:12.775Z,7.37
2023-01-10T20:31:39.680Z,7.50
2023-01-10T20:34:08.092Z,6.79
2023-01-10T20:36:35.349Z,7.47
2023-01-10T20:39:02.119Z,7.55
2023-01-10T20:41:30.597Z,6.78
2023-01-10T20:43:58.230Z,7.49
2023-01-10T20:46:26.870Z,7.01
2023-01-10T20:48:57.430Z,7.27
2023-01-10T20:51:31.844Z,7.56
2023-01-10T20:53:58.929Z,7.53
2023-01-10T20:56:27.934Z,6.99
2023-01-10T20:58:55.240Z,7.47
2023-01-10T21:01:33.610Z,7.70
2023-01-10T21:04:07.855Z,7.24
2023-01-10T21:06:36.353Z,7.88
2023-01-10T21:09:07.795Z,7.28
2023-01-10T21:11:44.463Z,7.69
2023-01-10T21:14:21.762Z,7.00
2023-01-10T21:16:48.793Z,7.94
2023-01-10T21:19:15.915Z,8.00
2023-01-10T21:21:47.539Z,7.31
2023-01-10T21:24:14.601Z,8.10
2023-01-10T21:26:41.376Z,8.15
2023-01-10T21:29:13.086Z,8.16
2023-01-10T21:31:40.267Z,8.21
2023-01-10T21:34:07.039Z,8.22
2023-01-10T21:36:34.449Z,8.28
2023-01-10T21:39:02.636Z,7.79
2023-01-10T21:41:31.026Z,8.30
2023-01-10T21:43:57.826Z,8.26
2023-01-10T21:46:25.849Z,8.35
2023-01-10T21:48:52.850Z,8.35
2023-01-10T21:51:19.785Z,8.40
2023-01-10T21:53:46.517Z,8.44
2023-01-10T21:56:14.959Z,8.31
2023-01-10T21:58:42.056Z,8.39
2023-01-10T22:01:08.867Z,8.54
2023-01-10T22:03:35.698Z,8.57
2023-01-10T22:06:02.568Z,8.40
2023-01-10T22:08:29.363Z,8.34
2023-01-10T22:10:56.196Z,8.43
2023-01-10T22:13:28.723Z,8.63
2023-01-10T22:15:58.108Z,8.57
2023-01-10T22:18:25.097Z,8.71
2023-01-10T22:20:54.057Z,8.59
2023-01-10T22:23:22.832Z,8.75
2023-01-10T22:26:00.841Z,8.70
2023-01-10T22:28:29.511Z,8.82
2023-01-10T22:30:56.441Z,8.51
2023-01-10T22:33:24.077Z,8.80
2023-01-10T22:35:51.117Z,8.93
2023-01-10T22:38:18.140Z,8.87
2023-01-10T22:40:45.621Z,8.95
2023-01-10T22:43:12.946Z,8.93
2023-01-10T22:45:46.334Z,8.95
2023-01-10T22:48:16.171Z,9.00
2023-01-10T22:50:52.712Z,8.86
2023-01-10T22:53:21.761Z,8.57
2023-01-10T22:55:48.531Z,9.06
2023-01-10T22:58:15.295Z,8.63
2023-01-10T23:00:43.395Z,9.06
2023-01-10T23:03:10.405Z,9.01
2023-01-10T23:05:37.148Z,8.47
2023-01-10T23:08:04.385Z,8.98
2023-01-10T23:10:31.252Z,8.37
2023-01-10T23:12:58.481Z,9.18
2023-01-10T23:15:25.529Z,8.77
2023-01-10T23:17:54.116Z,8.69
2023-01-10T23:20:21.137Z,8.70
2023-01-10T23:22:47.969Z,9.09
2023-01-10T23:25:14.816Z,9.16
2023-01-10T23:27:41.521Z,8.50
2023-01-10T23:30:13.927Z,8.66
2023-01-10T23:32:40.904Z,9.28
2023-01-10T23:35:09.900Z,9.28
2023-01-10T23:37:39.590Z,9.26
2023-01-10T23:40:07.338Z,9.31
2023-01-10T23:42:34.074Z,9.38
2023-01-10T23:45:00.942Z,9.22
2023-01-10T23:47:27.672Z,9.43
2023-01-10T23:49:54.477Z,8.87
2023-01-10T23:52:22.879Z,9.44
2023-01-10T23:54:49.851Z,9.28
2023-01-10T23:57:18.322Z,8.61
2023-01-10T23:59:45.658Z,9.32
